sensor_id;sensor_type;location;lat;lon;timestamp;P1;durP1;ratioP1;P2;durP2;ratioP2
11568;SDS011;5840;46.894;15.542;2024-03-17T00:06:37;6.83;;;6.23;;
11568;SDS011;5840;46.894;15.542;2024-03-17T00:09:04;6.73;;;6.13;;
11568;SDS011;5840;46.894;15.542;2024-03-17T00:11:31;7.73;;;7.13;;
11568;SDS011;5840;46.894;15.542;2024-03-17T00:13:58;7.80;;;7.10;;
11568;SDS011;5840;46.894;15.542;2024-03-17T00:16:24;7.93;;;7.23;;
11568;SDS011;5840;46.894;15.542;2024-03-17T00:18:50;7.50;;;6.97;;
11568;SDS011;5840;46.894;15.542;2024-03-17T00:21:16;7.33;;;6.73;;
11568;SDS011;5840;46.894;15.542;2024-03-17T00:23:43;6.97;;;6.47;;
11568;SDS011;5840;46.894;15.542;2024-03-17T00:31:12;6.00;;;5.47;;
11568;SDS011;5840;46.894;15.542;2024-03-17T00:33:39;6.93;;;6.20;;
11568;SDS011;5840;46.894;15.542;2024-03-17T00:36:06;5.23;;;4.83;;
11568;SDS011;5840;46.894;15.542;2024-03-17T00:38:32;5.47;;;5.00;;
11568;SDS011;5840;46.894;15.542;2024-03-17T00:40:58;5.30;;;4.90;;
11568;SDS011;5840;46.894;15.542;2024-03-17T00:43:25;5.20;;;4.80;;
11568;SDS011;5840;46.894;15.542;2024-03-17T00:45:51;5.20;;;4.80;;
11568;SDS011;5840;46.894;15.542;2024-03-17T00:48:18;5.37;;;4.50;;
11568;SDS011;5840;46.894;15.542;2024-03-17T00:58:13;5.60;;;5.10;;
11568;SDS011;5840;46.894;15.542;2024-03-17T01:00:40;5.90;;;5.40;;
11568;SDS011;5840;46.894;15.542;2024-03-17T01:03:06;5.70;;;5.20;;
11568;SDS011;5840;46.894;15.542;2024-03-17T01:05:32;5.50;;;5.10;;
11568;SDS011;5840;46.894;15.542;2024-03-17T01:07:58;5.23;;;4.83;;
11568;SDS011;5840;46.894;15.542;2024-03-17T01:10:24;5.33;;;4.93;;
11568;SDS011;5840;46.894;15.542;2024-03-17T01:12:50;5.67;;;5.17;;
11568;SDS011;5840;46.894;15.542;2024-03-17T01:15:17;6.60;;;6.00;;
11568;SDS011;5840;46.894;15.542;2024-03-17T01:22:46;6.83;;;6.33;;
11568;SDS011;5840;46.894;15.542;2024-03-17T01:25:12;7.07;;;6.37;;
11568;SDS011;5840;46.894;15.542;2024-03-17T01:27:38;6.33;;;5.77;;
11568;SDS011;5840;46.894;15.542;2024-03-17T01:30:05;6.43;;;5.80;;
11568;SDS011;5840;46.894;15.542;2024-03-17T01:32:31;5.80;;;5.40;;
11568;SDS011;5840;46.894;15.542;2024-03-17T01:34:57;5.87;;;5.37;;
11568;SDS011;5840;46.894;15.542;2024-03-17T01:37:23;6.43;;;5.93;;
11568;SDS011;5840;46.894;15.542;2024-03-17T01:39:50;7.13;;;6.43;;
11568;SDS011;5840;46.894;15.542;2024-03-17T01:49:45;5.90;;;5.50;;
11568;SDS011;5840;46.894;15.542;2024-03-17T01:52:13;6.33;;;5.83;;
11568;SDS011;5840;46.894;15.542;2024-03-17T01:54:39;6.97;;;6.40;;
11568;SDS011;5840;46.894;15.542;2024-03-17T01:57:06;6.27;;;5.77;;
11568;SDS011;5840;46.894;15.542;2024-03-17T01:59:33;5.77;;;5.27;;
11568;SDS011;5840;46.894;15.542;2024-03-17T02:01:59;5.50;;;5.10;;
11568;SDS011;5840;46.894;15.542;2024-03-17T02:04:25;5.60;;;5.20;;
11568;SDS011;5840;46.894;15.542;2024-03-17T02:06:53;5.67;;;5.17;;
11568;SDS011;5840;46.894;15.542;2024-03-17T02:16:47;6.63;;;6.23;;
11568;SDS011;5840;46.894;15.542;2024-03-17T02:19:13;6.50;;;5.90;;
11568;SDS011;5840;46.894;15.542;2024-03-17T02:21:39;7.10;;;6.40;;
11568;SDS011;5840;46.894;15.542;2024-03-17T02:24:07;6.93;;;6.33;;
11568;SDS011;5840;46.894;15.542;2024-03-17T02:26:33;6.47;;;5.97;;
11568;SDS011;5840;46.894;15.542;2024-03-17T02:29:00;7.00;;;6.40;;
11568;SDS011;5840;46.894;15.542;2024-03-17T02:31:26;7.03;;;6.40;;
11568;SDS011;5840;46.894;15.542;2024-03-17T02:33:53;7.33;;;6.73;;
11568;SDS011;5840;46.894;15.542;2024-03-17T02:41:27;6.87;;;6.27;;
11568;SDS011;5840;46.894;15.542;2024-03-17T02:43:54;7.50;;;6.90;;
11568;SDS011;5840;46.894;15.542;2024-03-17T02:46:20;7.37;;;6.67;;
11568;SDS011;5840;46.894;15.542;2024-03-17T02:48:48;7.03;;;6.43;;
11568;SDS011;5840;46.894;15.542;2024-03-17T02:51:17;7.20;;;6.60;;
11568;SDS011;5840;46.894;15.542;2024-03-17T02:53:45;6.80;;;6.20;;
11568;SDS011;5840;46.894;15.542;2024-03-17T02:56:13;6.53;;;6.03;;
11568;SDS011;5840;46.894;15.542;2024-03-17T02:58:42;6.27;;;5.87;;
11568;SDS011;5840;46.894;15.542;2024-03-17T03:06:15;6.73;;;6.13;;
11568;SDS011;5840;46.894;15.542;2024-03-17T03:08:44;6.93;;;6.43;;
11568;SDS011;5840;46.894;15.542;2024-03-17T03:11:14;7.77;;;7.17;;
11568;SDS011;5840;46.894;15.542;2024-03-17T03:13:42;6.83;;;6.30;;
11568;SDS011;5840;46.894;15.542;2024-03-17T03:16:09;7.83;;;7.10;;
11568;SDS011;5840;46.894;15.542;2024-03-17T03:18:36;7.73;;;7.10;;
11568;SDS011;5840;46.894;15.542;2024-03-17T03:21:03;7.03;;;6.53;;
11568;SDS011;5840;46.894;15.542;2024-03-17T03:23:30;7.33;;;6.63;;
11568;SDS011;5840;46.894;15.542;2024-03-17T03:33:21;7.20;;;6.70;;
11568;SDS011;5840;46.894;15.542;2024-03-17T03:35:47;7.43;;;6.83;;
11568;SDS011;5840;46.894;15.542;2024-03-17T03:38:14;6.67;;;6.17;;
11568;SDS011;5840;46.894;15.542;2024-03-17T03:40:40;6.83;;;6.30;;
11568;SDS011;5840;46.894;15.542;2024-03-17T03:43:07;5.83;;;5.43;;
11568;SDS011;5840;46.894;15.542;2024-03-17T03:45:33;4.70;;;4.30;;
11568;SDS011;5840;46.894;15.542;2024-03-17T03:48:00;4.30;;;4.00;;
11568;SDS011;5840;46.894;15.542;2024-03-17T03:50:27;4.10;;;3.67;;
11568;SDS011;5840;46.894;15.542;2024-03-17T03:57:56;4.20;;;3.90;;
11568;SDS011;5840;46.894;15.542;2024-03-17T04:00:23;5.97;;;5.47;;
11568;SDS011;5840;46.894;15.542;2024-03-17T04:02:49;6.13;;;5.53;;
11568;SDS011;5840;46.894;15.542;2024-03-17T04:05:16;6.00;;;5.40;;
11568;SDS011;5840;46.894;15.542;2024-03-17T04:07:43;6.37;;;5.87;;
11568;SDS011;5840;46.894;15.542;2024-03-17T04:10:11;6.73;;;6.23;;
11568;SDS011;5840;46.894;15.542;2024-03-17T04:12:38;7.07;;;6.47;;
11568;SDS011;5840;46.894;15.542;2024-03-17T04:15:05;5.70;;;5.10;;
11568;SDS011;5840;46.894;15.542;2024-03-17T04:22:39;5.27;;;4.77;;
11568;SDS011;5840;46.894;15.542;2024-03-17T04:25:05;3.70;;;3.40;;
11568;SDS011;5840;46.894;15.542;2024-03-17T04:27:32;3.67;;;3.10;;
11568;SDS011;5840;46.894;15.542;2024-03-17T04:29:59;3.60;;;3.40;;
11568;SDS011;5840;46.894;15.542;2024-03-17T04:32:25;3.00;;;2.80;;
11568;SDS011;5840;46.894;15.542;2024-03-17T04:34:52;2.77;;;2.63;;
11568;SDS011;5840;46.894;15.542;2024-03-17T04:37:18;2.77;;;2.57;;
11568;SDS011;5840;46.894;15.542;2024-03-17T04:39:46;2.63;;;2.43;;
11568;SDS011;5840;46.894;15.542;2024-03-17T04:47:16;2.57;;;2.43;;
11568;SDS011;5840;46.894;15.542;2024-03-17T04:49:42;2.97;;;2.77;;
11568;SDS011;5840;46.894;15.542;2024-03-17T04:52:09;2.97;;;2.77;;
11568;SDS011;5840;46.894;15.542;2024-03-17T04:54:36;2.90;;;2.70;;
11568;SDS011;5840;46.894;15.542;2024-03-17T04:57:02;2.80;;;2.60;;
11568;SDS011;5840;46.894;15.542;2024-03-17T04:59:29;2.80;;;2.53;;
11568;SDS011;5840;46.894;15.542;2024-03-17T05:01:55;2.67;;;2.57;;
11568;SDS011;5840;46.894;15.542;2024-03-17T05:04:22;2.70;;;2.50;;
11568;SDS011;5840;46.894;15.542;2024-03-17T05:11:52;2.80;;;2.43;;
11568;SDS011;5840;46.894;15.542;2024-03-17T05:14:18;2.70;;;2.60;;
11568;SDS011;5840;46.894;15.542;2024-03-17T05:16:44;3.17;;;2.97;;
11568;SDS011;5840;46.894;15.542;2024-03-17T05:19:13;3.10;;;2.90;;
11568;SDS011;5840;46.894;15.542;2024-03-17T05:21:39;3.20;;;2.77;;
11568;SDS011;5840;46.894;15.542;2024-03-17T05:24:05;2.77;;;2.57;;
11568;SDS011;5840;46.894;15.542;2024-03-17T05:26:32;3.27;;;2.97;;
11568;SDS011;5840;46.894;15.542;2024-03-17T05:28:59;2.53;;;2.40;;
11568;SDS011;5840;46.894;15.542;2024-03-17T05:36:27;2.10;;;2.00;;
11568;SDS011;5840;46.894;15.542;2024-03-17T05:38:57;2.30;;;2.10;;
11568;SDS011;5840;46.894;15.542;2024-03-17T05:41:24;2.70;;;2.50;;
11568;SDS011;5840;46.894;15.542;2024-03-17T05:43:51;2.47;;;2.30;;
11568;SDS011;5840;46.894;15.542;2024-03-17T05:46:17;3.83;;;3.50;;
11568;SDS011;5840;46.894;15.542;2024-03-17T05:48:43;2.80;;;2.60;;
11568;SDS011;5840;46.894;15.542;2024-03-17T05:51:10;6.80;;;6.30;;
11568;SDS011;5840;46.894;15.542;2024-03-17T05:53:39;2.77;;;2.60;;
11568;SDS011;5840;46.894;15.542;2024-03-17T06:03:34;2.50;;;2.40;;
11568;SDS011;5840;46.894;15.542;2024-03-17T06:06:01;2.70;;;2.50;;
11568;SDS011;5840;46.894;15.542;2024-03-17T06:08:28;3.57;;;2.63;;
11568;SDS011;5840;46.894;15.542;2024-03-17T06:10:54;2.77;;;2.60;;
11568;SDS011;5840;46.894;15.542;2024-03-17T06:13:22;2.47;;;2.30;;
11568;SDS011;5840;46.894;15.542;2024-03-17T06:15:49;2.47;;;2.30;;
11568;SDS011;5840;46.894;15.542;2024-03-17T06:18:16;3.03;;;2.33;;
11568;SDS011;5840;46.894;15.542;2024-03-17T06:20:44;2.43;;;2.33;;
11568;SDS011;5840;46.894;15.542;2024-03-17T06:30:38;5.20;;;4.80;;
11568;SDS011;5840;46.894;15.542;2024-03-17T06:33:04;5.17;;;4.77;;
11568;SDS011;5840;46.894;15.542;2024-03-17T06:35:31;4.10;;;3.77;;
11568;SDS011;5840;46.894;15.542;2024-03-17T06:37:58;4.10;;;3.50;;
11568;SDS011;5840;46.894;15.542;2024-03-17T06:40:25;3.77;;;3.47;;
11568;SDS011;5840;46.894;15.542;2024-03-17T06:42:53;3.33;;;3.03;;
11568;SDS011;5840;46.894;15.542;2024-03-17T06:45:19;4.30;;;4.00;;
11568;SDS011;5840;46.894;15.542;2024-03-17T06:47:46;4.73;;;4.33;;
11568;SDS011;5840;46.894;15.542;2024-03-17T06:55:17;4.50;;;4.20;;
11568;SDS011;5840;46.894;15.542;2024-03-17T06:57:43;5.63;;;5.13;;
11568;SDS011;5840;46.894;15.542;2024-03-17T07:00:10;4.50;;;4.20;;
11568;SDS011;5840;46.894;15.542;2024-03-17T07:02:39;7.97;;;7.27;;
11568;SDS011;5840;46.894;15.542;2024-03-17T07:05:06;7.10;;;6.50;;
11568;SDS011;5840;46.894;15.542;2024-03-17T07:07:33;5.90;;;5.50;;
11568;SDS011;5840;46.894;15.542;2024-03-17T07:09:59;4.70;;;4.30;;
11568;SDS011;5840;46.894;15.542;2024-03-17T07:12:30;4.53;;;4.20;;
11568;SDS011;5840;46.894;15.542;2024-03-17T07:19:55;3.20;;;3.00;;
11568;SDS011;5840;46.894;15.542;2024-03-17T07:22:21;2.93;;;2.70;;
11568;SDS011;5840;46.894;15.542;2024-03-17T07:24:51;2.70;;;2.50;;
11568;SDS011;5840;46.894;15.542;2024-03-17T07:27:20;3.07;;;2.70;;
11568;SDS011;5840;46.894;15.542;2024-03-17T07:29:47;3.00;;;2.70;;
11568;SDS011;5840;46.894;15.542;2024-03-17T07:32:13;3.03;;;2.80;;
11568;SDS011;5840;46.894;15.542;2024-03-17T07:34:40;3.27;;;3.07;;
11568;SDS011;5840;46.894;15.542;2024-03-17T07:37:06;2.70;;;2.50;;
11568;SDS011;5840;46.894;15.542;2024-03-17T07:44:36;3.47;;;3.17;;
11568;SDS011;5840;46.894;15.542;2024-03-17T07:47:02;4.03;;;3.00;;
11568;SDS011;5840;46.894;15.542;2024-03-17T07:49:29;3.00;;;2.80;;
11568;SDS011;5840;46.894;15.542;2024-03-17T07:51:55;2.73;;;2.53;;
11568;SDS011;5840;46.894;15.542;2024-03-17T07:54:22;2.53;;;2.43;;
11568;SDS011;5840;46.894;15.542;2024-03-17T07:56:49;3.73;;;2.60;;
11568;SDS011;5840;46.894;15.542;2024-03-17T07:59:15;3.03;;;2.83;;
11568;SDS011;5840;46.894;15.542;2024-03-17T08:01:43;2.77;;;2.57;;
11568;SDS011;5840;46.894;15.542;2024-03-17T08:09:13;2.70;;;2.60;;
11568;SDS011;5840;46.894;15.542;2024-03-17T08:11:41;3.03;;;2.83;;
11568;SDS011;5840;46.894;15.542;2024-03-17T08:14:11;3.00;;;2.80;;
11568;SDS011;5840;46.894;15.542;2024-03-17T08:16:37;3.40;;;3.10;;
11568;SDS011;5840;46.894;15.542;2024-03-17T08:19:04;4.60;;;4.30;;
11568;SDS011;5840;46.894;15.542;2024-03-17T08:21:32;4.67;;;4.30;;
11568;SDS011;5840;46.894;15.542;2024-03-17T08:23:58;3.90;;;3.60;;
11568;SDS011;5840;46.894;15.542;2024-03-17T08:26:25;3.53;;;3.10;;
11568;SDS011;5840;46.894;15.542;2024-03-17T08:33:54;3.10;;;2.90;;
11568;SDS011;5840;46.894;15.542;2024-03-17T08:36:20;2.93;;;2.73;;
11568;SDS011;5840;46.894;15.542;2024-03-17T08:38:47;2.57;;;2.30;;
11568;SDS011;5840;46.894;15.542;2024-03-17T08:41:14;2.30;;;2.20;;
11568;SDS011;5840;46.894;15.542;2024-03-17T08:43:40;2.40;;;2.30;;
11568;SDS011;5840;46.894;15.542;2024-03-17T08:46:08;2.47;;;2.37;;
11568;SDS011;5840;46.894;15.542;2024-03-17T08:48:36;1.90;;;1.80;;
11568;SDS011;5840;46.894;15.542;2024-03-17T08:51:04;2.10;;;2.00;;
11568;SDS011;5840;46.894;15.542;2024-03-17T08:58:34;2.00;;;1.90;;
11568;SDS011;5840;46.894;15.542;2024-03-17T09:01:04;2.00;;;1.90;;
11568;SDS011;5840;46.894;15.542;2024-03-17T09:03:32;2.10;;;2.00;;
11568;SDS011;5840;46.894;15.542;2024-03-17T09:05:58;1.50;;;1.40;;
11568;SDS011;5840;46.894;15.542;2024-03-17T09:08:24;1.50;;;1.40;;
11568;SDS011;5840;46.894;15.542;2024-03-17T09:10:53;1.53;;;1.53;;
11568;SDS011;5840;46.894;15.542;2024-03-17T09:13:20;1.77;;;1.40;;
11568;SDS011;5840;46.894;15.542;2024-03-17T09:16:03;1.40;;;1.30;;
11568;SDS011;5840;46.894;15.542;2024-03-17T09:23:33;1.23;;;1.23;;
11568;SDS011;5840;46.894;15.542;2024-03-17T09:26:00;1.40;;;1.40;;
11568;SDS011;5840;46.894;15.542;2024-03-17T09:28:28;1.60;;;1.50;;
11568;SDS011;5840;46.894;15.542;2024-03-17T09:30:56;1.10;;;1.10;;
11568;SDS011;5840;46.894;15.542;2024-03-17T09:33:23;2.07;;;1.20;;
11568;SDS011;5840;46.894;15.542;2024-03-17T09:38:17;1.37;;;1.33;;
11568;SDS011;5840;46.894;15.542;2024-03-17T09:40:46;1.23;;;1.23;;
11568;SDS011;5840;46.894;15.542;2024-03-17T09:48:15;1.33;;;1.23;;
11568;SDS011;5840;46.894;15.542;2024-03-17T09:50:44;1.10;;;1.10;;
11568;SDS011;5840;46.894;15.542;2024-03-17T09:53:17;1.60;;;1.30;;
11568;SDS011;5840;46.894;15.542;2024-03-17T09:55:46;1.20;;;1.20;;
11568;SDS011;5840;46.894;15.542;2024-03-17T09:58:15;1.30;;;1.20;;
11568;SDS011;5840;46.894;15.542;2024-03-17T10:00:42;0.70;;;0.70;;
11568;SDS011;5840;46.894;15.542;2024-03-17T10:03:08;1.30;;;1.20;;
11568;SDS011;5840;46.894;15.542;2024-03-17T10:05:36;1.10;;;1.10;;
11568;SDS011;5840;46.894;15.542;2024-03-17T10:13:05;1.50;;;1.40;;
11568;SDS011;5840;46.894;15.542;2024-03-17T10:15:38;1.20;;;1.10;;
11568;SDS011;5840;46.894;15.542;2024-03-17T10:18:19;1.10;;;1.10;;
11568;SDS011;5840;46.894;15.542;2024-03-17T10:20:47;1.60;;;1.00;;
11568;SDS011;5840;46.894;15.542;2024-03-17T10:23:17;1.90;;;1.00;;
11568;SDS011;5840;46.894;15.542;2024-03-17T10:25:44;0.93;;;0.93;;
11568;SDS011;5840;46.894;15.542;2024-03-17T10:28:11;0.90;;;0.90;;
11568;SDS011;5840;46.894;15.542;2024-03-17T10:30:38;0.80;;;0.80;;
11568;SDS011;5840;46.894;15.542;2024-03-17T10:38:22;1.10;;;1.10;;
11568;SDS011;5840;46.894;15.542;2024-03-17T10:40:49;0.80;;;0.80;;
11568;SDS011;5840;46.894;15.542;2024-03-17T10:43:15;0.90;;;0.90;;
11568;SDS011;5840;46.894;15.542;2024-03-17T10:45:41;0.90;;;0.90;;
11568;SDS011;5840;46.894;15.542;2024-03-17T10:48:08;0.80;;;0.80;;
11568;SDS011;5840;46.894;15.542;2024-03-17T10:50:40;0.70;;;0.70;;
11568;SDS011;5840;46.894;15.542;2024-03-17T10:53:06;1.27;;;0.83;;
11568;SDS011;5840;46.894;15.542;2024-03-17T10:55:37;1.43;;;1.33;;
11568;SDS011;5840;46.894;15.542;2024-03-17T11:03:25;1.63;;;1.53;;
11568;SDS011;5840;46.894;15.542;2024-03-17T11:05:52;2.37;;;1.57;;
11568;SDS011;5840;46.894;15.542;2024-03-17T11:08:18;1.80;;;1.70;;
11568;SDS011;5840;46.894;15.542;2024-03-17T11:10:49;1.80;;;1.70;;
11568;SDS011;5840;46.894;15.542;2024-03-17T11:13:22;1.77;;;1.67;;
11568;SDS011;5840;46.894;15.542;2024-03-17T11:15:49;1.60;;;1.50;;
11568;SDS011;5840;46.894;15.542;2024-03-17T11:18:36;2.00;;;1.57;;
11568;SDS011;5840;46.894;15.542;2024-03-17T11:24:17;1.30;;;1.30;;
11568;SDS011;5840;46.894;15.542;2024-03-17T11:26:44;1.67;;;1.60;;
11568;SDS011;5840;46.894;15.542;2024-03-17T11:29:23;1.60;;;1.50;;
11568;SDS011;5840;46.894;15.542;2024-03-17T11:31:52;2.10;;;2.00;;
11568;SDS011;5840;46.894;15.542;2024-03-17T11:34:30;1.20;;;1.20;;
11568;SDS011;5840;46.894;15.542;2024-03-17T11:37:01;2.33;;;2.13;;
11568;SDS011;5840;46.894;15.542;2024-03-17T11:39:46;1.40;;;1.40;;
11568;SDS011;5840;46.894;15.542;2024-03-17T11:51:03;2.00;;;1.90;;
11568;SDS011;5840;46.894;15.542;2024-03-17T11:53:30;1.90;;;1.80;;
11568;SDS011;5840;46.894;15.542;2024-03-17T11:55:56;2.20;;;2.10;;
11568;SDS011;5840;46.894;15.542;2024-03-17T11:58:22;2.00;;;1.90;;
11568;SDS011;5840;46.894;15.542;2024-03-17T12:00:51;2.13;;;1.97;;
11568;SDS011;5840;46.894;15.542;2024-03-17T12:03:17;2.13;;;2.00;;
11568;SDS011;5840;46.894;15.542;2024-03-17T12:05:43;1.97;;;1.87;;
11568;SDS011;5840;46.894;15.542;2024-03-17T12:08:18;2.10;;;1.90;;
11568;SDS011;5840;46.894;15.542;2024-03-17T12:15:48;2.40;;;2.30;;
11568;SDS011;5840;46.894;15.542;2024-03-17T12:18:19;2.00;;;1.90;;
11568;SDS011;5840;46.894;15.542;2024-03-17T12:20:47;2.47;;;2.20;;
11568;SDS011;5840;46.894;15.542;2024-03-17T12:23:14;2.13;;;2.03;;
11568;SDS011;5840;46.894;15.542;2024-03-17T12:25:46;2.17;;;2.07;;
11568;SDS011;5840;46.894;15.542;2024-03-17T12:28:13;1.73;;;1.53;;
11568;SDS011;5840;46.894;15.542;2024-03-17T12:30:41;1.60;;;1.50;;
11568;SDS011;5840;46.894;15.542;2024-03-17T12:35:47;2.10;;;2.00;;
11568;SDS011;5840;46.894;15.542;2024-03-17T12:38:20;2.07;;;1.97;;
11568;SDS011;5840;46.894;15.542;2024-03-17T12:40:47;2.30;;;2.20;;
11568;SDS011;5840;46.894;15.542;2024-03-17T12:43:14;2.03;;;1.93;;
11568;SDS011;5840;46.894;15.542;2024-03-17T12:45:40;1.90;;;1.80;;
11568;SDS011;5840;46.894;15.542;2024-03-17T12:48:10;1.90;;;1.80;;
11568;SDS011;5840;46.894;15.542;2024-03-17T12:50:43;3.13;;;2.93;;
11568;SDS011;5840;46.894;15.542;2024-03-17T12:53:14;1.90;;;1.80;;
11568;SDS011;5840;46.894;15.542;2024-03-17T13:01:03;1.90;;;1.80;;
11568;SDS011;5840;46.894;15.542;2024-03-17T13:03:32;1.90;;;1.80;;
11568;SDS011;5840;46.894;15.542;2024-03-17T13:05:59;2.30;;;2.20;;
11568;SDS011;5840;46.894;15.542;2024-03-17T13:08:27;2.00;;;1.90;;
11568;SDS011;5840;46.894;15.542;2024-03-17T13:10:53;1.90;;;1.80;;
11568;SDS011;5840;46.894;15.542;2024-03-17T13:13:20;2.07;;;1.97;;
11568;SDS011;5840;46.894;15.542;2024-03-17T13:15:46;2.13;;;2.03;;
11568;SDS011;5840;46.894;15.542;2024-03-17T13:18:15;2.03;;;1.93;;
11568;SDS011;5840;46.894;15.542;2024-03-17T13:28:09;2.20;;;2.10;;
11568;SDS011;5840;46.894;15.542;2024-03-17T13:30:36;2.30;;;2.20;;
11568;SDS011;5840;46.894;15.542;2024-03-17T13:33:02;2.00;;;1.90;;
11568;SDS011;5840;46.894;15.542;2024-03-17T13:35:33;2.20;;;2.10;;
11568;SDS011;5840;46.894;15.542;2024-03-17T13:38:03;2.20;;;2.10;;
11568;SDS011;5840;46.894;15.542;2024-03-17T13:40:31;2.00;;;1.90;;
11568;SDS011;5840;46.894;15.542;2024-03-17T13:42:58;2.17;;;2.07;;
11568;SDS011;5840;46.894;15.542;2024-03-17T13:45:26;2.23;;;2.13;;
11568;SDS011;5840;46.894;15.542;2024-03-17T13:53:11;2.30;;;2.20;;
11568;SDS011;5840;46.894;15.542;2024-03-17T13:55:37;2.20;;;2.10;;
11568;SDS011;5840;46.894;15.542;2024-03-17T13:58:03;2.60;;;2.47;;
11568;SDS011;5840;46.894;15.542;2024-03-17T14:00:30;2.50;;;2.40;;
11568;SDS011;5840;46.894;15.542;2024-03-17T14:02:59;2.70;;;2.50;;
11568;SDS011;5840;46.894;15.542;2024-03-17T14:05:26;2.40;;;2.30;;
11568;SDS011;5840;46.894;15.542;2024-03-17T14:07:52;2.43;;;2.33;;
11568;SDS011;5840;46.894;15.542;2024-03-17T14:10:20;2.63;;;2.43;;
11568;SDS011;5840;46.894;15.542;2024-03-17T14:20:15;2.50;;;2.40;;
11568;SDS011;5840;46.894;15.542;2024-03-17T14:22:43;2.17;;;2.07;;
11568;SDS011;5840;46.894;15.542;2024-03-17T14:25:14;2.70;;;2.50;;
11568;SDS011;5840;46.894;15.542;2024-03-17T14:27:42;2.30;;;2.20;;
11568;SDS011;5840;46.894;15.542;2024-03-17T14:30:09;2.60;;;2.50;;
11568;SDS011;5840;46.894;15.542;2024-03-17T14:32:38;2.40;;;2.30;;
11568;SDS011;5840;46.894;15.542;2024-03-17T14:35:04;2.60;;;2.40;;
11568;SDS011;5840;46.894;15.542;2024-03-17T14:37:32;2.77;;;2.57;;
11568;SDS011;5840;46.894;15.542;2024-03-17T14:47:12;2.50;;;2.40;;
11568;SDS011;5840;46.894;15.542;2024-03-17T14:49:38;2.47;;;2.27;;
11568;SDS011;5840;46.894;15.542;2024-03-17T14:52:05;2.40;;;2.20;;
11568;SDS011;5840;46.894;15.542;2024-03-17T14:54:31;2.53;;;2.40;;
11568;SDS011;5840;46.894;15.542;2024-03-17T14:56:57;2.50;;;2.40;;
11568;SDS011;5840;46.894;15.542;2024-03-17T14:59:23;2.57;;;2.47;;
11568;SDS011;5840;46.894;15.542;2024-03-17T15:01:50;2.50;;;2.30;;
11568;SDS011;5840;46.894;15.542;2024-03-17T15:04:17;3.00;;;2.80;;
11568;SDS011;5840;46.894;15.542;2024-03-17T15:11:46;2.63;;;2.40;;
11568;SDS011;5840;46.894;15.542;2024-03-17T15:14:12;2.23;;;2.13;;
11568;SDS011;5840;46.894;15.542;2024-03-17T15:16:39;2.70;;;2.50;;
11568;SDS011;5840;46.894;15.542;2024-03-17T15:19:05;2.63;;;2.53;;
11568;SDS011;5840;46.894;15.542;2024-03-17T15:21:32;2.70;;;2.50;;
11568;SDS011;5840;46.894;15.542;2024-03-17T15:23:58;2.83;;;2.63;;
11568;SDS011;5840;46.894;15.542;2024-03-17T15:26:27;2.53;;;2.33;;
11568;SDS011;5840;46.894;15.542;2024-03-17T15:28:55;2.50;;;2.40;;
11568;SDS011;5840;46.894;15.542;2024-03-17T15:38:51;9.00;;;8.30;;
11568;SDS011;5840;46.894;15.542;2024-03-17T15:41:17;8.63;;;7.93;;
11568;SDS011;5840;46.894;15.542;2024-03-17T15:43:43;3.87;;;3.67;;
11568;SDS011;5840;46.894;15.542;2024-03-17T15:46:13;3.57;;;3.37;;
11568;SDS011;5840;46.894;15.542;2024-03-17T15:48:41;3.27;;;3.07;;
11568;SDS011;5840;46.894;15.542;2024-03-17T15:51:07;2.83;;;2.63;;
11568;SDS011;5840;46.894;15.542;2024-03-17T15:53:33;3.17;;;2.97;;
11568;SDS011;5840;46.894;15.542;2024-03-17T15:56:01;2.80;;;2.60;;
11568;SDS011;5840;46.894;15.542;2024-03-17T16:03:32;2.93;;;2.70;;
11568;SDS011;5840;46.894;15.542;2024-03-17T16:06:02;2.80;;;2.60;;
11568;SDS011;5840;46.894;15.542;2024-03-17T16:08:32;3.13;;;2.93;;
11568;SDS011;5840;46.894;15.542;2024-03-17T16:11:03;3.60;;;3.30;;
11568;SDS011;5840;46.894;15.542;2024-03-17T16:13:31;2.90;;;2.70;;
11568;SDS011;5840;46.894;15.542;2024-03-17T16:15:58;3.20;;;2.80;;
11568;SDS011;5840;46.894;15.542;2024-03-17T16:18:25;2.80;;;2.60;;
11568;SDS011;5840;46.894;15.542;2024-03-17T16:23:34;2.43;;;2.33;;
11568;SDS011;5840;46.894;15.542;2024-03-17T16:26:03;2.60;;;2.50;;
11568;SDS011;5840;46.894;15.542;2024-03-17T16:28:30;2.60;;;2.50;;
11568;SDS011;5840;46.894;15.542;2024-03-17T16:30:56;3.10;;;2.80;;
11568;SDS011;5840;46.894;15.542;2024-03-17T16:33:23;2.70;;;2.50;;
11568;SDS011;5840;46.894;15.542;2024-03-17T16:35:51;2.90;;;2.70;;
11568;SDS011;5840;46.894;15.542;2024-03-17T16:38:19;3.00;;;2.70;;
11568;SDS011;5840;46.894;15.542;2024-03-17T16:40:47;2.63;;;2.43;;
11568;SDS011;5840;46.894;15.542;2024-03-17T16:48:17;2.50;;;2.40;;
11568;SDS011;5840;46.894;15.542;2024-03-17T16:50:44;2.90;;;2.70;;
11568;SDS011;5840;46.894;15.542;2024-03-17T16:53:10;3.00;;;2.80;;
11568;SDS011;5840;46.894;15.542;2024-03-17T16:55:36;2.70;;;2.60;;
11568;SDS011;5840;46.894;15.542;2024-03-17T16:58:03;2.70;;;2.50;;
11568;SDS011;5840;46.894;15.542;2024-03-17T17:00:29;3.47;;;2.70;;
11568;SDS011;5840;46.894;15.542;2024-03-17T17:02:55;3.10;;;2.90;;
11568;SDS011;5840;46.894;15.542;2024-03-17T17:05:22;3.03;;;2.83;;
11568;SDS011;5840;46.894;15.542;2024-03-17T17:12:52;3.47;;;2.40;;
11568;SDS011;5840;46.894;15.542;2024-03-17T17:15:18;3.00;;;2.80;;
11568;SDS011;5840;46.894;15.542;2024-03-17T17:17:45;2.97;;;2.73;;
11568;SDS011;5840;46.894;15.542;2024-03-17T17:20:12;2.73;;;2.53;;
11568;SDS011;5840;46.894;15.542;2024-03-17T17:22:39;2.63;;;2.43;;
11568;SDS011;5840;46.894;15.542;2024-03-17T17:25:06;4.03;;;3.30;;
11568;SDS011;5840;46.894;15.542;2024-03-17T17:27:34;3.20;;;3.00;;
11568;SDS011;5840;46.894;15.542;2024-03-17T17:30:01;3.23;;;2.93;;
11568;SDS011;5840;46.894;15.542;2024-03-17T17:37:34;3.50;;;3.20;;
11568;SDS011;5840;46.894;15.542;2024-03-17T17:40:00;3.40;;;3.10;;
11568;SDS011;5840;46.894;15.542;2024-03-17T17:42:26;3.20;;;2.97;;
11568;SDS011;5840;46.894;15.542;2024-03-17T17:44:53;4.50;;;3.10;;
11568;SDS011;5840;46.894;15.542;2024-03-17T17:47:19;3.50;;;3.17;;
11568;SDS011;5840;46.894;15.542;2024-03-17T17:49:46;3.43;;;3.13;;
11568;SDS011;5840;46.894;15.542;2024-03-17T17:52:12;3.63;;;3.33;;
11568;SDS011;5840;46.894;15.542;2024-03-17T17:57:17;3.60;;;3.30;;
11568;SDS011;5840;46.894;15.542;2024-03-17T17:59:43;3.37;;;3.07;;
11568;SDS011;5840;46.894;15.542;2024-03-17T18:02:09;3.50;;;3.30;;
11568;SDS011;5840;46.894;15.542;2024-03-17T18:04:35;3.10;;;2.90;;
11568;SDS011;5840;46.894;15.542;2024-03-17T18:07:02;3.60;;;3.37;;
11568;SDS011;5840;46.894;15.542;2024-03-17T18:09:28;4.13;;;3.13;;
11568;SDS011;5840;46.894;15.542;2024-03-17T18:11:54;3.33;;;3.03;;
11568;SDS011;5840;46.894;15.542;2024-03-17T18:14:21;3.40;;;3.17;;
11568;SDS011;5840;46.894;15.542;2024-03-17T18:21:53;4.07;;;3.50;;
11568;SDS011;5840;46.894;15.542;2024-03-17T18:24:19;3.50;;;3.20;;
11568;SDS011;5840;46.894;15.542;2024-03-17T18:26:45;3.63;;;3.40;;
11568;SDS011;5840;46.894;15.542;2024-03-17T18:29:12;3.77;;;3.20;;
11568;SDS011;5840;46.894;15.542;2024-03-17T18:31:38;4.13;;;3.73;;
11568;SDS011;5840;46.894;15.542;2024-03-17T18:34:04;3.73;;;3.40;;
11568;SDS011;5840;46.894;15.542;2024-03-17T18:36:30;4.27;;;3.87;;
11568;SDS011;5840;46.894;15.542;2024-03-17T18:38:59;5.10;;;4.07;;
11568;SDS011;5840;46.894;15.542;2024-03-17T18:46:28;4.47;;;4.07;;
11568;SDS011;5840;46.894;15.542;2024-03-17T18:48:55;3.77;;;3.47;;
11568;SDS011;5840;46.894;15.542;2024-03-17T18:51:21;6.27;;;4.10;;
11568;SDS011;5840;46.894;15.542;2024-03-17T18:53:47;4.20;;;3.80;;
11568;SDS011;5840;46.894;15.542;2024-03-17T18:56:17;4.23;;;3.83;;
11568;SDS011;5840;46.894;15.542;2024-03-17T18:58:44;4.70;;;4.30;;
11568;SDS011;5840;46.894;15.542;2024-03-17T19:01:11;3.73;;;3.43;;
11568;SDS011;5840;46.894;15.542;2024-03-17T19:06:18;4.90;;;3.87;;